createdAt,value
2024-03-05T04:29:34.801Z,4.79
2024-03-05T04:32:42.062Z,4.84
2024-03-05T04:35:44.740Z,4.88
2024-03-05T04:38:47.353Z,4.92
2024-03-05T04:41:49.915Z,4.98
2024-03-05T04:44:54.384Z,5.01
2024-03-05T04:47:58.156Z,5.05
2024-03-05T04:51:01.535Z,5.06
2024-03-05T04:54:04.236Z,5.05
2024-03-05T04:57:07.969Z,5.08
2024-03-05T05:00:25.308Z,5.13
2024-03-05T05:03:28.231Z,5.13
2024-03-05T05:06:30.717Z,5.14
2024-03-05T05:09:33.243Z,5.13
2024-03-05T05:12:36.612Z,5.12
2024-03-05T05:15:39.197Z,5.12
2024-03-05T05:18:41.806Z,5.15
2024-03-05T05:21:48.278Z,5.09
2024-03-05T05:24:51.225Z,5.23
2024-03-05T05:27:53.900Z,5.37
2024-03-05T05:30:56.422Z,5.49
2024-03-05T05:33:59.302Z,5.62
2024-03-05T05:37:02.080Z,5.77
2024-03-05T05:40:05.321Z,5.79
2024-03-05T05:43:09.319Z,5.96
2024-03-05T05:46:23.415Z,6.15
2024-03-05T05:49:26.055Z,6.30
2024-03-05T05:52:28.608Z,6.44
2024-03-05T05:55:31.440Z,6.60
2024-03-05T05:58:37.437Z,6.60
2024-03-05T06:01:40.099Z,6.70
2024-03-05T06:04:43.074Z,6.73
2024-03-05T06:07:45.937Z,6.87
2024-03-05T06:10:48.496Z,7.07
2024-03-05T06:13:52.178Z,7.20
2024-03-05T06:16:54.774Z,7.48
2024-03-05T06:20:00.026Z,7.64
2024-03-05T06:23:02.786Z,7.83
2024-03-05T06:26:05.449Z,7.78
2024-03-05T06:29:10.310Z,7.96
2024-03-05T06:32:12.983Z,8.27
2024-03-05T06:35:16.788Z,8.48
2024-03-05T06:38:19.443Z,8.47
2024-03-05T06:41:26.344Z,8.64
2024-03-05T06:44:37.408Z,9.17
2024-03-05T06:47:41.139Z,9.59
2024-03-05T06:50:50.070Z,10.49
2024-03-05T06:54:20.114Z,11.52
2024-03-05T06:57:24.366Z,11.48
2024-03-05T07:00:28.155Z,10.79
2024-03-05T07:03:30.669Z,10.80
2024-03-05T07:06:33.631Z,10.93
2024-03-05T07:09:36.371Z,11.80
2024-03-05T07:12:38.877Z,14.37
2024-03-05T07:15:41.917Z,15.76
2024-03-05T07:18:45.372Z,17.06
2024-03-05T07:21:48.847Z,17.50
2024-03-05T07:24:53.472Z,19.37
2024-03-05T07:27:56.752Z,20.56
2024-03-05T07:31:00.773Z,21.34
2024-03-05T07:34:04.134Z,21.07
2024-03-05T07:37:09.562Z,21.73
2024-03-05T07:40:21.797Z,21.80
2024-03-05T07:43:25.017Z,22.86
2024-03-05T07:46:27.698Z,22.87
2024-03-05T07:49:34.675Z,23.44
2024-03-05T07:52:38.251Z,23.28
2024-03-05T07:55:46.362Z,22.92
2024-03-05T07:58:50.033Z,23.07
2024-03-05T08:01:53.410Z,23.73
2024-03-05T08:04:56.203Z,23.63
2024-03-05T08:08:00.299Z,23.20
2024-03-05T08:11:07.081Z,23.24
2024-03-05T08:14:18.663Z,24.21
2024-03-05T08:17:21.400Z,23.69
2024-03-05T08:20:28.908Z,23.18
2024-03-05T08:23:34.598Z,24.39
2024-03-05T08:26:37.510Z,25.58
2024-03-05T08:29:41.025Z,25.19
2024-03-05T08:32:44.995Z,26.01
2024-03-05T08:35:47.612Z,26.53
2024-03-05T08:38:50.232Z,26.37
2024-03-05T08:41:52.946Z,24.45
2024-03-05T08:45:02.115Z,24.48
2024-03-05T08:48:07.147Z,25.60
2024-03-05T08:51:09.727Z,26.44
2024-03-05T08:54:16.416Z,25.51
2024-03-05T08:57:25.003Z,26.35
2024-03-05T09:00:37.925Z,25.83
2024-03-05T09:03:45.803Z,26.43
2024-03-05T09:06:49.633Z,24.97
2024-03-05T09:09:59.137Z,24.43
2024-03-05T09:13:01.686Z,24.95
2024-03-05T09:16:04.701Z,25.61
2024-03-05T09:19:07.764Z,25.66
2024-03-05T09:22:10.729Z,25.87
2024-03-05T09:25:15.315Z,26.72
2024-03-05T09:28:21.504Z,28.19
2024-03-05T09:31:26.329Z,28.54
2024-03-05T09:34:29.198Z,27.91
2024-03-05T09:37:32.385Z,27.34
2024-03-05T09:40:36.484Z,29.02
2024-03-05T09:43:43.279Z,29.78
2024-03-05T09:46:47.522Z,28.44
2024-03-05T09:49:54.149Z,28.90
2024-03-05T09:53:00.774Z,28.69
2024-03-05T09:56:18.181Z,28.82
2024-03-05T09:59:37.737Z,28.36
2024-03-05T10:02:52.742Z,28.91
2024-03-05T10:05:56.491Z,29.27
2024-03-05T10:08:59.641Z,30.04
2024-03-05T10:12:05.938Z,30.36
2024-03-05T10:15:12.648Z,30.04
2024-03-05T10:18:30.761Z,29.54
2024-03-05T10:21:35.036Z,30.02
2024-03-05T10:24:38.462Z,24.68
2024-03-05T10:27:46.358Z,24.95
2024-03-05T10:30:59.831Z,23.61
2024-03-05T10:34:05.237Z,23.95
2024-03-05T10:37:08.702Z,23.76
2024-03-05T10:40:16.497Z,24.65
2024-03-05T10:43:23.424Z,24.27
2024-03-05T10:46:26.931Z,24.63
2024-03-05T10:49:37.247Z,22.97
2024-03-05T10:52:42.116Z,22.43
2024-03-05T10:56:01.468Z,22.24
2024-03-05T10:59:16.914Z,22.82
2024-03-05T11:02:28.903Z,22.37
2024-03-05T11:05:41.424Z,22.95
2024-03-05T11:08:45.106Z,22.43
2024-03-05T11:11:53.064Z,22.95
2024-03-05T11:14:56.302Z,22.03
2024-03-05T11:17:59.334Z,21.47
2024-03-05T11:21:10.322Z,20.70
2024-03-05T11:24:13.295Z,20.21
2024-03-05T11:27:25.686Z,20.15
2024-03-05T11:30:32.337Z,19.41
2024-03-05T11:33:35.882Z,19.22
2024-03-05T11:36:38.388Z,18.68
2024-03-05T11:39:44.451Z,18.46
2024-03-05T11:42:50.562Z,18.40
2024-03-05T11:45:53.641Z,18.07
2024-03-05T11:49:02.480Z,17.82
2024-03-05T11:52:05.777Z,18.23
2024-03-05T11:55:10.817Z,18.29
2024-03-05T11:58:15.876Z,18.46
2024-03-05T12:01:18.487Z,18.33
2024-03-05T12:04:21.278Z,17.91
2024-03-05T12:07:23.990Z,17.98
2024-03-05T12:10:34.570Z,18.19
2024-03-05T12:13:37.831Z,18.06
2024-03-05T12:16:40.454Z,17.93
2024-03-05T12:19:43.393Z,18.12
2024-03-05T12:22:56.906Z,18.26
2024-03-05T12:26:00.191Z,18.62
2024-03-05T12:29:03.703Z,18.65
2024-03-05T12:32:09.049Z,18.59
2024-03-05T12:35:15.558Z,18.35
2024-03-05T12:38:18.273Z,18.59
2024-03-05T12:41:23.921Z,19.12
2024-03-05T12:44:26.801Z,18.73
2024-03-05T12:47:32.339Z,18.51
2024-03-05T12:50:38.069Z,18.94
2024-03-05T12:53:42.231Z,18.89
2024-03-05T12:56:46.425Z,19.14
2024-03-05T12:59:50.661Z,19.16
2024-03-05T13:02:53.942Z,18.91
2024-03-05T13:06:00.512Z,18.89
2024-03-05T13:09:06.957Z,19.00
2024-03-05T13:12:09.710Z,18.98
2024-03-05T13:15:12.327Z,18.77
2024-03-05T13:18:15.180Z,19.13
2024-03-05T13:21:17.830Z,18.93
2024-03-05T13:24:20.774Z,18.89
2024-03-05T13:27:25.128Z,19.23
2024-03-05T13:30:28.230Z,18.99
2024-03-05T13:33:38.907Z,18.90
2024-03-05T13:36:47.987Z,18.42
2024-03-05T13:39:50.559Z,18.66
2024-03-05T13:42:53.352Z,18.74
2024-03-05T13:45:58.570Z,17.88
2024-03-05T13:49:01.165Z,17.95
2024-03-05T13:52:04.177Z,17.61
2024-03-05T13:55:08.191Z,17.40
2024-03-05T13:58:15.578Z,17.35
2024-03-05T14:01:18.594Z,17.18
2024-03-05T14:04:23.767Z,17.01
2024-03-05T14:07:26.451Z,16.79
2024-03-05T14:10:30.672Z,16.90
2024-03-05T14:13:34.140Z,16.92
2024-03-05T14:16:39.737Z,16.86
2024-03-05T14:19:42.649Z,16.60
2024-03-05T14:22:47.382Z,16.66
2024-03-05T14:25:50.437Z,16.47
2024-03-05T14:28:53.211Z,16.47
2024-03-05T14:31:56.338Z,16.31
2024-03-05T14:35:00.077Z,16.23
2024-03-05T14:38:03.001Z,16.19
2024-03-05T14:41:06.101Z,16.31
2024-03-05T14:44:12.203Z,16.53
2024-03-05T14:47:15.563Z,16.35
2024-03-05T14:50:18.832Z,16.43
2024-03-05T14:53:21.703Z,16.36
2024-03-05T14:56:28.183Z,16.31
2024-03-05T14:59:32.354Z,16.19
2024-03-05T15:02:35.246Z,16.20
2024-03-05T15:05:38.210Z,16.08
2024-03-05T15:08:40.749Z,16.11
2024-03-05T15:11:43.496Z,15.93
2024-03-05T15:14:47.902Z,15.82
2024-03-05T15:17:50.889Z,15.79
2024-03-05T15:20:53.787Z,15.74
2024-03-05T15:23:56.805Z,15.65
2024-03-05T15:27:05.285Z,15.61
2024-03-05T15:30:16.288Z,15.52
2024-03-05T15:33:19.215Z,15.50
2024-03-05T15:36:22.199Z,15.50
2024-03-05T15:39:27.775Z,15.62
2024-03-05T15:42:30.656Z,15.44
2024-03-05T15:45:33.655Z,15.40
2024-03-05T15:48:36.471Z,15.33
2024-03-05T15:51:39.280Z,15.34
2024-03-05T15:54:41.987Z,15.26
2024-03-05T15:58:04.345Z,15.22
2024-03-05T16:01:07.058Z,15.11
2024-03-05T16:04:30.100Z,15.02
2024-03-05T16:07:33.488Z,14.97
2024-03-05T16:10:44.815Z,14.92
2024-03-05T16:13:50.733Z,14.85
2024-03-05T16:16:53.374Z,14.83
2024-03-05T16:19:56.056Z,14.69
2024-03-05T16:22:59.976Z,14.61
2024-03-05T16:26:05.993Z,14.65
2024-03-05T16:29:08.878Z,14.67
2024-03-05T16:32:14.308Z,14.62
2024-03-05T16:35:19.876Z,14.60
2024-03-05T16:38:22.479Z,14.66
2024-03-05T16:41:25.347Z,14.56
2024-03-05T16:44:27.960Z,14.54
2024-03-05T16:47:32.120Z,14.49
2024-03-05T16:50:35.373Z,14.33
2024-03-05T16:53:38.984Z,14.20
2024-03-05T16:56:43.547Z,14.16
2024-03-05T16:59:46.306Z,14.18
2024-03-05T17:03:01.572Z,14.03
2024-03-05T17:06:09.073Z,13.87
2024-03-05T17:09:15.851Z,13.83
2024-03-05T17:12:19.572Z,13.64
2024-03-05T17:15:22.334Z,13.53
2024-03-05T17:18:25.598Z,13.38
2024-03-05T17:21:28.472Z,13.20
2024-03-05T17:24:31.117Z,13.05
2024-03-05T17:27:34.756Z,12.93
2024-03-05T17:30:39.666Z,12.78
2024-03-05T17:33:42.399Z,12.65
2024-03-05T17:36:45.025Z,12.56
2024-03-05T17:39:47.770Z,12.47
2024-03-05T17:42:50.371Z,12.43
2024-03-05T17:45:53.005Z,12.31
2024-03-05T17:48:55.557Z,12.25
2024-03-05T17:51:58.101Z,12.15
2024-03-05T17:55:08.913Z,12.03
2024-03-05T17:58:11.692Z,11.87
2024-03-05T18:01:15.603Z,11.75
2024-03-05T18:04:19.009Z,11.64
2024-03-05T18:07:21.465Z,11.48
2024-03-05T18:10:25.123Z,11.33
2024-03-05T18:13:27.927Z,11.26
2024-03-05T18:16:30.866Z,11.27
